createdAt,value
2018-06-05T11:46:14.179Z,30.40
2018-06-05T11:48:44.644Z,30.30
2018-06-05T11:51:15.316Z,30.10
2018-06-05T11:53:45.484Z,29.90
2018-06-05T11:56:16.352Z,29.90
2018-06-05T11:58:46.728Z,29.90
2018-06-05T12:01:17.061Z,29.90
2018-06-05T12:03:47.115Z,29.90
2018-06-05T12:06:18.095Z,29.80
2018-06-05T12:08:48.609Z,29.90
2018-06-05T12:11:19.003Z,30.30
2018-06-05T12:16:18.903Z,30.30
2018-06-05T12:18:49.228Z,30.30
2018-06-05T12:21:19.442Z,30.50
2018-06-05T12:23:49.770Z,30.50
2018-06-05T12:26:20.018Z,30.30
2018-06-05T12:28:50.167Z,30.10
2018-06-05T12:31:20.502Z,30.00
2018-06-05T12:33:50.679Z,30.20
2018-06-05T12:36:20.811Z,30.30
2018-06-05T12:38:51.295Z,30.90
2018-06-05T12:41:21.602Z,31.50
2018-06-05T12:43:51.809Z,31.40
2018-06-05T12:46:22.210Z,30.70
2018-06-05T12:48:52.318Z,30.70
2018-06-05T12:51:22.309Z,30.70
2018-06-05T12:53:52.320Z,31.10
2018-06-05T12:56:22.470Z,31.80
2018-06-05T12:58:52.929Z,32.10
2018-06-05T13:01:22.988Z,32.20
2018-06-05T13:03:53.071Z,30.70
2018-06-05T13:06:23.220Z,30.60
2018-06-05T13:08:55.300Z,31.00
2018-06-05T13:11:25.994Z,31.00
2018-06-05T13:13:56.178Z,30.80
2018-06-05T13:16:26.444Z,29.70
2018-06-05T13:21:25.888Z,30.50
2018-06-05T13:23:56.011Z,29.80
2018-06-05T13:26:26.120Z,28.40
2018-06-05T13:28:56.896Z,28.50
2018-06-05T13:31:27.167Z,28.20
2018-06-05T13:33:57.346Z,28.20
2018-06-05T13:36:27.624Z,29.10
2018-06-05T13:38:57.920Z,29.30
2018-06-05T13:41:27.886Z,29.30
2018-06-05T13:43:58.118Z,29.20
2018-06-05T13:48:57.892Z,30.20
2018-06-05T13:51:28.452Z,30.50
2018-06-05T13:53:58.581Z,29.90
2018-06-05T13:56:28.860Z,28.50
2018-06-05T14:01:28.549Z,27.80
2018-06-05T14:03:58.644Z,28.10
2018-06-05T14:06:29.464Z,28.50
2018-06-05T14:08:59.776Z,29.10
2018-06-05T14:11:29.945Z,29.50
2018-06-05T14:14:01.242Z,28.50
2018-06-05T14:16:31.409Z,28.70
2018-06-05T14:19:01.496Z,29.50
2018-06-05T14:21:31.686Z,30.30
2018-06-05T14:29:01.152Z,28.90
2018-06-05T14:31:31.399Z,27.10
2018-06-05T14:34:01.530Z,26.70
2018-06-05T14:36:31.660Z,26.80
2018-06-05T14:39:01.991Z,27.20
2018-06-05T14:41:32.274Z,27.60
2018-06-05T14:44:02.576Z,27.60
2018-06-05T14:46:32.767Z,26.70
2018-06-05T14:49:03.198Z,26.00
2018-06-05T14:51:33.828Z,26.50
2018-06-05T14:54:04.153Z,27.00
2018-06-05T14:56:34.681Z,27.20
2018-06-05T14:59:05.021Z,27.80
2018-06-05T15:01:35.341Z,27.80
2018-06-05T15:04:05.872Z,27.50
2018-06-05T15:06:36.192Z,27.50
2018-06-05T15:09:07.536Z,27.50
2018-06-05T15:11:37.862Z,27.30
2018-06-05T15:14:07.998Z,27.70
2018-06-05T15:16:38.525Z,27.50
2018-06-05T15:19:08.596Z,27.40
2018-06-05T15:21:38.761Z,26.90
2018-06-05T15:24:10.082Z,26.50
2018-06-05T15:26:40.193Z,26.30
2018-06-05T15:29:10.331Z,25.90
2018-06-05T15:31:40.736Z,25.90
2018-06-05T15:34:11.303Z,25.80
2018-06-05T15:36:41.907Z,25.70
2018-06-05T15:39:12.094Z,25.80
2018-06-05T15:41:42.437Z,25.70
2018-06-05T15:44:12.658Z,25.70
2018-06-05T15:46:43.060Z,25.40
2018-06-05T15:49:13.169Z,25.00
2018-06-05T15:51:43.467Z,25.00
2018-06-05T15:54:13.760Z,25.10
2018-06-05T15:56:43.896Z,24.90
2018-06-05T16:01:44.073Z,25.00
2018-06-05T16:04:14.267Z,25.10
2018-06-05T16:06:44.444Z,24.90
2018-06-05T16:09:14.634Z,24.70
2018-06-05T16:11:44.935Z,24.80
2018-06-05T16:16:44.544Z,24.90
2018-06-05T16:19:15.102Z,24.70
2018-06-05T16:21:45.145Z,24.70
2018-06-05T16:24:15.341Z,24.80
2018-06-05T16:26:45.547Z,24.70
2018-06-05T16:29:16.397Z,24.50
2018-06-05T16:31:46.601Z,24.60
2018-06-05T16:36:46.554Z,24.70
2018-06-05T16:39:16.897Z,24.60
2018-06-05T16:41:47.201Z,24.70
2018-06-05T16:44:17.693Z,24.50
2018-06-05T16:46:47.788Z,24.60
2018-06-05T16:49:17.981Z,24.40
2018-06-05T16:51:48.278Z,24.30
2018-06-05T16:54:18.535Z,24.10
2018-06-05T16:56:48.663Z,24.10
2018-06-05T16:59:19.132Z,24.00
2018-06-05T17:01:50.025Z,24.00
2018-06-05T17:04:20.236Z,23.90
2018-06-05T17:06:50.583Z,23.70
2018-06-05T17:09:20.711Z,23.70
2018-06-05T17:11:50.774Z,23.60
2018-06-05T17:19:20.315Z,23.30
2018-06-05T17:21:50.390Z,23.20
2018-06-05T17:24:20.804Z,23.30
2018-06-05T17:26:51.201Z,23.20
2018-06-05T17:29:21.486Z,23.30
2018-06-05T17:31:52.003Z,23.10
2018-06-05T17:34:22.410Z,23.10
2018-06-05T17:36:52.682Z,23.20
2018-06-05T17:39:22.799Z,23.20
2018-06-05T17:44:22.464Z,23.10
2018-06-05T17:46:54.553Z,23.20
2018-06-05T17:51:54.518Z,23.50
2018-06-05T17:54:26.506Z,23.60
2018-06-05T17:56:56.900Z,24.10
2018-06-05T17:59:27.301Z,24.70
2018-06-05T18:01:58.128Z,25.40
2018-06-05T18:07:00.541Z,24.50
2018-06-05T18:09:31.156Z,24.10
2018-06-05T18:12:01.386Z,23.90
2018-06-05T18:17:02.615Z,23.20
2018-06-05T18:19:33.116Z,23.10
2018-06-05T18:22:03.335Z,23.00
2018-06-05T18:24:33.546Z,23.00
2018-06-05T18:27:03.918Z,22.90
2018-06-05T18:29:34.398Z,22.90
2018-06-05T18:32:05.317Z,22.80
2018-06-05T18:34:35.622Z,22.80
2018-06-05T18:37:06.269Z,22.70
2018-06-05T18:39:36.555Z,22.60
2018-06-05T18:42:07.523Z,22.50
2018-06-05T18:44:37.851Z,22.50
2018-06-05T18:47:08.258Z,22.40
2018-06-05T18:49:39.685Z,22.30
2018-06-05T18:52:10.300Z,22.30
2018-06-05T18:54:40.455Z,22.20
2018-06-05T18:57:10.757Z,22.20
2018-06-05T18:59:40.987Z,22.10
2018-06-05T19:02:11.318Z,22.00
2018-06-05T19:04:41.394Z,21.90
2018-06-05T19:09:41.260Z,21.80
2018-06-05T19:12:11.553Z,21.80
2018-06-05T19:14:41.569Z,21.70
2018-06-05T19:17:11.702Z,21.60
2018-06-05T19:19:42.991Z,21.60
2018-06-05T19:22:13.339Z,21.50
2018-06-05T19:27:14.339Z,21.50
2018-06-05T19:29:47.059Z,21.40
2018-06-05T19:32:18.368Z,21.30
2018-06-05T19:34:48.659Z,21.30
2018-06-05T19:39:48.328Z,21.30
2018-06-05T19:42:19.618Z,21.20
2018-06-05T19:44:49.721Z,21.20
2018-06-05T19:47:19.970Z,21.20
2018-06-05T19:49:50.456Z,21.10
2018-06-05T19:52:20.646Z,21.10
2018-06-05T19:54:50.774Z,21.10
2018-06-05T19:57:21.177Z,21.10
2018-06-05T19:59:51.475Z,21.00
2018-06-05T20:02:22.162Z,21.00
2018-06-05T20:07:22.888Z,21.00
2018-06-05T20:09:53.036Z,21.00
2018-06-05T20:12:22.965Z,21.00
2018-06-05T20:14:53.719Z,21.00
2018-06-05T20:17:24.192Z,21.00
2018-06-05T20:19:54.403Z,21.00
2018-06-05T20:22:24.825Z,21.00
2018-06-05T20:24:55.440Z,21.00
2018-06-05T20:27:25.729Z,21.00
2018-06-05T20:29:56.143Z,20.90
2018-06-05T20:32:26.247Z,20.90
2018-06-05T20:34:56.420Z,20.90
2018-06-05T20:37:27.230Z,20.80
2018-06-05T20:39:57.452Z,20.80
2018-06-05T20:42:28.463Z,20.70
2018-06-05T20:44:58.499Z,20.70
2018-06-05T20:47:28.794Z,20.70
2018-06-05T20:49:59.152Z,20.80
2018-06-05T20:52:29.368Z,20.70
2018-06-05T20:54:59.943Z,20.70
2018-06-05T20:59:59.876Z,20.70
2018-06-05T21:02:30.309Z,20.70
2018-06-05T21:05:00.612Z,20.60
2018-06-05T21:07:31.211Z,20.60
2018-06-05T21:10:01.440Z,20.50
2018-06-05T21:12:31.678Z,20.50
2018-06-05T21:17:31.511Z,20.50
2018-06-05T21:20:01.669Z,20.50
2018-06-05T21:22:31.813Z,20.50
2018-06-05T21:25:02.006Z,20.50
2018-06-05T21:27:33.620Z,20.60
2018-06-05T21:30:03.904Z,20.60
2018-06-05T21:32:34.135Z,20.60
2018-06-05T21:35:04.548Z,20.70
2018-06-05T21:37:34.787Z,20.70
2018-06-05T21:40:05.125Z,20.70
2018-06-05T21:42:35.423Z,20.70
2018-06-05T21:45:05.901Z,20.70
2018-06-05T21:50:05.917Z,20.80
2018-06-05T21:52:36.513Z,20.80
2018-06-05T21:55:06.664Z,20.80
2018-06-05T21:57:37.105Z,20.90
2018-06-05T22:00:07.879Z,20.80
2018-06-05T22:05:10.831Z,20.90
2018-06-05T22:07:41.384Z,20.90
2018-06-05T22:10:11.649Z,20.90
2018-06-05T22:12:42.127Z,20.90
2018-06-05T22:15:12.538Z,20.90
2018-06-05T22:17:43.382Z,20.90
2018-06-05T22:20:13.458Z,20.90
2018-06-05T22:22:43.725Z,20.90
2018-06-05T22:25:13.748Z,20.90
2018-06-05T22:27:43.957Z,20.90
2018-06-05T22:30:14.874Z,21.00
2018-06-05T22:32:45.083Z,21.00
2018-06-05T22:35:15.214Z,21.00
2018-06-05T22:37:45.477Z,21.00
2018-06-05T22:40:15.889Z,21.00
2018-06-05T22:42:46.211Z,20.90
2018-06-05T22:45:16.701Z,20.90
2018-06-05T22:47:46.833Z,20.80
2018-06-05T22:50:16.964Z,20.80
2018-06-05T22:52:47.208Z,20.80
2018-06-05T22:55:17.352Z,20.80
2018-06-05T22:57:47.712Z,20.70
2018-06-05T23:00:32.247Z,20.70
2018-06-05T23:03:02.559Z,20.70
2018-06-05T23:05:33.761Z,20.70
2018-06-05T23:08:04.032Z,20.70
2018-06-05T23:10:34.156Z,20.60
2018-06-05T23:13:04.146Z,20.60
2018-06-05T23:15:34.524Z,20.60
2018-06-05T23:18:04.556Z,20.60
2018-06-05T23:20:34.905Z,20.60
2018-06-05T23:23:05.135Z,20.50
2018-06-05T23:25:35.635Z,20.40
2018-06-05T23:28:05.855Z,20.40
2018-06-05T23:30:35.856Z,20.40
2018-06-05T23:33:05.958Z,20.30
2018-06-05T23:35:36.232Z,20.30
2018-06-05T23:38:08.426Z,20.30
2018-06-05T23:43:07.999Z,20.20
2018-06-05T23:45:37.235Z,20.20
2018-06-05T23:50:37.442Z,20.30
2018-06-05T23:53:07.677Z,20.30
2018-06-05T23:55:37.982Z,20.40
2018-06-05T23:58:10.748Z,20.50
